Time;durP1;ratioP1;P1;durP2;ratioP2;P2;SDS_P1;SDS_P2;PMS_P1;PMS_P2;Temp;Humidity;BMP_temperature;BMP_pressure;BME280_temperature;BME280_humidity;BME280_pressure;Samples;Min_cycle;Max_cycle;Signal;HPM_P1;HPM_P2
2021/11/01 00:01:40;;;;;;;4.90;2.53;;;;;;;9.73;100.00;94579.47;5010547;28;24447;-75
2021/11/01 00:04:06;;;;;;;2.83;2.03;;;;;;;9.76;100.00;94572.31;5010739;28;24418;-75
2021/11/01 00:06:34;;;;;;;2.95;2.10;;;;;;;9.81;100.00;94566.75;5010315;28;20778;-75
2021/11/01 00:09:01;;;;;;;4.05;2.35;;;;;;;9.82;100.00;94574.38;5010288;28;24979;-75
2021/11/01 00:11:27;;;;;;;2.45;2.22;;;;;;;9.82;100.00;94576.97;5010620;28;25101;-75
2021/11/01 00:13:54;;;;;;;3.65;1.83;;;;;;;9.81;100.00;94574.50;5010644;28;24428;-75
2021/11/01 00:16:21;;;;;;;2.47;2.15;;;;;;;9.77;100.00;94573.94;5010315;28;24420;-75
2021/11/01 00:18:48;;;;;;;2.45;2.25;;;;;;;9.80;100.00;94567.72;5010502;28;24421;-75
2021/11/01 00:21:14;;;;;;;3.53;2.20;;;;;;;9.93;100.00;94565.78;5010473;28;24426;-75
2021/11/01 00:23:42;;;;;;;3.47;2.55;;;;;;;9.87;100.00;94572.28;5010853;28;24548;-75
2021/11/01 00:26:09;;;;;;;3.08;2.00;;;;;;;9.91;100.00;94558.16;5010485;28;24847;-75
2021/11/01 00:28:35;;;;;;;3.03;2.40;;;;;;;9.92;100.00;94561.56;5010380;28;24436;-75
2021/11/01 00:31:02;;;;;;;2.80;2.20;;;;;;;9.90;100.00;94559.09;5010526;28;24459;-75
2021/11/01 00:33:29;;;;;;;3.35;2.38;;;;;;;9.82;100.00;94563.22;5010417;28;24431;-75
2021/11/01 00:35:56;;;;;;;2.42;2.05;;;;;;;9.81;100.00;94561.59;5009947;28;24950;-75
2021/11/01 00:38:23;;;;;;;2.83;2.00;;;;;;;9.83;100.00;94565.69;5010506;28;24425;-75
2021/11/01 00:40:51;;;;;;;4.30;2.25;;;;;;;9.86;100.00;94559.44;5010389;28;24428;-74
2021/11/01 00:43:17;;;;;;;2.35;1.77;;;;;;;9.94;100.00;94560.50;5010169;28;24452;-75
2021/11/01 00:45:44;;;;;;;2.35;1.92;;;;;;;9.98;100.00;94560.25;5010069;28;24428;-75
2021/11/01 00:48:11;;;;;;;2.90;1.70;;;;;;;10.02;100.00;94564.25;5010268;28;20778;-74
2021/11/01 00:50:39;;;;;;;2.40;1.77;;;;;;;10.05;100.00;94558.81;5010212;28;20758;-75
2021/11/01 00:53:06;;;;;;;2.88;2.20;;;;;;;10.06;100.00;94550.94;5010448;28;20857;-76
2021/11/01 00:55:36;;;;;;;4.22;1.85;;;;;;;10.10;100.00;94543.75;5010062;28;24475;-75
2021/11/01 00:58:04;;;;;;;1.98;1.77;;;;;;;10.12;100.00;94544.44;5010051;28;24834;-75
2021/11/01 01:00:32;;;;;;;4.35;2.10;;;;;;;10.18;100.00;94547.34;5010105;28;24602;-75
2021/11/01 01:02:58;;;;;;;1.90;1.70;;;;;;;10.21;100.00;94537.72;5009906;28;24471;-76
2021/11/01 01:05:25;;;;;;;4.05;1.65;;;;;;;10.24;100.00;94538.28;5012744;28;25032;-75
2021/11/01 01:07:52;;;;;;;2.58;1.83;;;;;;;10.27;100.00;94534.66;5013605;28;24428;-75
2021/11/01 01:10:18;;;;;;;3.33;1.50;;;;;;;10.29;100.00;94536.16;5013709;28;24420;-75
2021/11/01 01:12:45;;;;;;;3.22;1.80;;;;;;;10.24;100.00;94538.28;5013527;28;24423;-75
2021/11/01 01:15:19;;;;;;;2.72;1.80;;;;;;;10.25;100.00;94541.69;5013144;28;24431;-75
2021/11/01 01:17:47;;;;;;;4.20;1.88;;;;;;;10.33;100.00;94554.84;5013176;28;24785;-75
2021/11/01 01:20:16;;;;;;;3.60;2.00;;;;;;;10.12;100.00;94558.22;5013561;28;24781;-75
2021/11/01 01:22:44;;;;;;;3.15;1.92;;;;;;;9.99;100.00;94559.31;5013372;28;24535;-75
2021/11/01 01:25:21;;;;;;;2.27;1.43;;;;;;;10.26;100.00;94564.06;5013359;28;24798;-75
2021/11/01 01:27:49;;;;;;;4.68;1.70;;;;;;;10.31;100.00;94567.13;5012376;28;20760;-75
2021/11/01 01:30:18;;;;;;;1.52;1.00;;;;;;;10.27;100.00;94571.72;5012998;28;24432;-75
2021/11/01 01:32:45;;;;;;;2.92;1.05;;;;;;;10.27;100.00;94569.13;5013396;28;20803;-76
2021/11/01 01:35:13;;;;;;;3.40;1.20;;;;;;;10.16;100.00;94576.91;5013018;28;20793;-75
2021/11/01 01:37:40;;;;;;;2.25;1.23;;;;;;;10.05;100.00;94577.75;5013095;28;24459;-75
2021/11/01 01:40:10;;;;;;;3.03;1.23;;;;;;;9.92;100.00;94577.88;5013163;28;20762;-76
2021/11/01 01:42:38;;;;;;;2.38;0.70;;;;;;;9.95;100.00;94582.00;5012672;28;25051;-76
2021/11/01 01:45:07;;;;;;;2.03;0.80;;;;;;;9.97;100.00;94584.47;5012651;28;24412;-76
2021/11/01 01:47:35;;;;;;;1.80;0.65;;;;;;;9.89;100.00;94582.47;5012865;28;24487;-76
2021/11/01 01:50:04;;;;;;;2.03;0.70;;;;;;;9.81;100.00;94592.63;5013101;28;20802;-76
2021/11/01 01:52:31;;;;;;;1.20;0.50;;;;;;;9.81;100.00;94602.97;5012904;28;20763;-75
2021/11/01 01:54:57;;;;;;;2.90;0.82;;;;;;;9.78;100.00;94596.25;5012452;28;24486;-75
2021/11/01 01:57:24;;;;;;;1.38;0.45;;;;;;;9.73;100.00;94592.41;5012463;28;24494;-75
2021/11/01 01:59:51;;;;;;;1.58;0.55;;;;;;;9.74;100.00;94581.09;5012878;28;24794;-75
2021/11/01 02:02:18;;;;;;;1.85;0.75;;;;;;;9.82;100.00;94589.91;5012631;28;24448;-75
2021/11/01 02:04:46;;;;;;;2.15;0.70;;;;;;;9.80;100.00;94594.38;5012306;28;24600;-75
2021/11/01 02:07:22;;;;;;;3.47;0.73;;;;;;;9.81;100.00;94584.84;5012647;28;20873;-76
2021/11/01 02:09:56;;;;;;;2.15;0.60;;;;;;;9.89;100.00;94577.31;5012349;28;24490;-76
2021/11/01 02:12:29;;;;;;;2.72;0.68;;;;;;;9.87;100.00;94563.69;5012507;28;21318;-76
2021/11/01 02:15:01;;;;;;;0.83;0.30;;;;;;;9.86;100.00;94559.44;5011966;28;20720;-76
2021/11/01 02:17:29;;;;;;;1.23;0.50;;;;;;;9.91;100.00;94567.69;5011975;28;24436;-76
2021/11/01 02:20:05;;;;;;;1.48;0.60;;;;;;;9.86;100.00;94557.72;5012386;28;20811;-76
2021/11/01 02:22:41;;;;;;;3.90;0.60;;;;;;;9.87;100.00;94568.88;5012590;28;24467;-76
2021/11/01 02:25:11;;;;;;;5.05;0.68;;;;;;;9.90;100.00;94560.84;5012004;28;24421;-76
2021/11/01 02:27:43;;;;;;;1.50;0.50;;;;;;;9.96;100.00;94569.91;5012271;28;20807;-75
2021/11/01 02:30:12;;;;;;;1.20;0.50;;;;;;;9.98;100.00;94568.84;5012140;28;24428;-75
2021/11/01 02:32:43;;;;;;;1.23;0.50;;;;;;;9.88;100.00;94560.97;5011857;28;24833;-75
2021/11/01 02:35:11;;;;;;;1.10;0.50;;;;;;;9.83;100.00;94565.69;5011811;28;20797;-75
2021/11/01 02:37:38;;;;;;;1.77;0.73;;;;;;;9.76;100.00;94564.53;5012054;28;24429;-75
2021/11/01 02:40:07;;;;;;;1.33;0.40;;;;;;;9.69;100.00;94578.88;5011849;28;24427;-75
2021/11/01 02:42:34;;;;;;;2.17;0.50;;;;;;;9.63;100.00;94584.53;5011737;28;24448;-75
2021/11/01 02:45:06;;;;;;;1.27;0.50;;;;;;;9.74;100.00;94583.69;5011503;28;24973;-75
2021/11/01 02:47:32;;;;;;;0.88;0.50;;;;;;;9.76;100.00;94574.88;5011872;28;20732;-75
2021/11/01 02:50:00;;;;;;;3.15;0.80;;;;;;;9.73;100.00;94582.88;5011881;28;24439;-75
2021/11/01 02:52:28;;;;;;;1.92;0.60;;;;;;;9.65;100.00;94580.06;5011736;28;24420;-76
2021/11/01 02:54:55;;;;;;;1.55;0.50;;;;;;;9.57;100.00;94574.69;5011380;28;24428;-75
2021/11/01 02:57:22;;;;;;;2.20;0.50;;;;;;;9.65;100.00;94572.31;5011437;28;24802;-75
2021/11/01 02:59:50;;;;;;;1.10;0.40;;;;;;;9.71;100.00;94564.06;5011406;28;24425;-75
2021/11/01 03:02:18;;;;;;;1.17;0.40;;;;;;;9.75;100.00;94568.03;5011483;28;24424;-76
2021/11/01 03:04:45;;;;;;;0.70;0.40;;;;;;;9.77;100.00;94579.09;5011384;28;24500;-76
2021/11/01 03:07:12;;;;;;;1.20;0.30;;;;;;;9.81;100.00;94585.69;5011441;28;24428;-76
2021/11/01 03:09:45;;;;;;;1.00;0.60;;;;;;;9.85;100.00;94592.25;5011463;28;24428;-76
2021/11/01 03:12:13;;;;;;;0.88;0.40;;;;;;;9.76;100.00;94602.50;5011286;28;24439;-75
2021/11/01 03:14:48;;;;;;;1.10;0.32;;;;;;;9.79;100.00;94600.50;5011198;28;24425;-75
2021/11/01 03:17:22;;;;;;;0.75;0.35;;;;;;;9.81;100.00;94597.78;5011073;28;24786;-76
2021/11/01 03:19:54;;;;;;;1.50;0.50;;;;;;;9.75;100.00;94608.59;5011630;28;24417;-75
2021/11/01 03:22:20;;;;;;;0.85;0.50;;;;;;;9.66;100.00;94620.50;5011174;28;24806;-76
2021/11/01 03:24:53;;;;;;;0.93;0.43;;;;;;;9.64;100.00;94622.34;5010593;28;24444;-75
2021/11/01 03:27:21;;;;;;;3.30;0.40;;;;;;;9.59;100.00;94627.88;5010888;28;24523;-76
2021/11/01 03:29:48;;;;;;;1.30;0.40;;;;;;;9.44;100.00;94611.78;5010981;28;24416;-75
2021/11/01 03:32:15;;;;;;;1.58;0.50;;;;;;;9.19;100.00;94620.59;5011137;28;24416;-75
2021/11/01 03:34:44;;;;;;;0.82;0.30;;;;;;;9.32;100.00;94617.09;5010705;28;24423;-75
2021/11/01 03:37:15;;;;;;;4.32;0.70;;;;;;;9.29;100.00;94612.97;5010953;28;20786;-75
2021/11/01 03:39:43;;;;;;;1.48;0.60;;;;;;;9.35;100.00;94622.84;5011254;28;24482;-75
2021/11/01 03:42:11;;;;;;;4.57;0.70;;;;;;;9.44;100.00;94632.47;5011172;28;20758;-75
2021/11/01 03:44:45;;;;;;;1.48;0.40;;;;;;;9.38;100.00;94625.22;5010745;28;20845;-75
2021/11/01 03:47:13;;;;;;;1.63;0.40;;;;;;;9.31;100.00;94626.59;5010898;28;20745;-75
2021/11/01 03:49:48;;;;;;;2.17;0.60;;;;;;;9.19;100.00;94622.34;5010684;28;24432;-75
2021/11/01 03:52:20;;;;;;;1.67;0.55;;;;;;;9.13;100.00;94633.16;5011090;28;20773;-75
2021/11/01 03:54:47;;;;;;;1.40;0.50;;;;;;;9.06;100.00;94635.38;5010667;28;20701;-76
2021/11/01 03:57:15;;;;;;;2.15;0.60;;;;;;;9.11;100.00;94645.34;5010658;28;24523;-76
2021/11/01 03:59:42;;;;;;;1.17;0.50;;;;;;;9.15;100.00;94650.16;5010719;28;24427;-76
2021/11/01 04:02:13;;;;;;;2.00;0.80;;;;;;;9.21;100.00;94648.91;5010631;28;24428;-76
2021/11/01 04:04:40;;;;;;;1.17;0.60;;;;;;;9.05;100.00;94649.25;5010589;28;20874;-76
2021/11/01 04:07:06;;;;;;;1.48;0.60;;;;;;;9.02;100.00;94651.22;4992390;28;24486;-76
2021/11/01 04:09:34;;;;;;;2.08;0.90;;;;;;;9.08;100.00;94645.59;4978273;28;24440;-76
2021/11/01 04:12:00;;;;;;;2.22;0.85;;;;;;;9.14;100.00;94639.97;4989480;28;24880;-76
2021/11/01 04:14:29;;;;;;;2.42;1.30;;;;;;;9.16;100.00;94649.25;4990743;28;20779;-76
2021/11/01 04:16:59;;;;;;;4.22;0.80;;;;;;;9.19;100.00;94645.59;4990612;28;24842;-75
2021/11/01 04:19:35;;;;;;;1.13;0.70;;;;;;;9.18;100.00;94641.38;4991240;28;20868;-76
2021/11/01 04:22:03;;;;;;;1.02;0.60;;;;;;;9.23;100.00;94638.44;4991172;28;20687;-76
2021/11/01 04:24:31;;;;;;;2.20;0.70;;;;;;;9.19;100.00;94649.00;4975107;28;20831;-75
2021/11/01 04:27:00;;;;;;;1.75;0.70;;;;;;;9.21;100.00;94660.06;4971749;28;20773;-75
2021/11/01 04:29:30;;;;;;;1.20;0.40;;;;;;;9.21;100.00;94665.22;4971229;28;20804;-76
2021/11/01 04:32:05;;;;;;;2.72;0.50;;;;;;;9.21;100.00;94670.38;4971757;28;20740;-75
2021/11/01 04:34:34;;;;;;;1.52;0.57;;;;;;;9.13;100.00;94683.06;4971416;28;21128;-76
2021/11/01 04:37:00;;;;;;;1.00;0.60;;;;;;;9.08;100.00;94695.47;4971369;28;20901;-75
2021/11/01 04:39:35;;;;;;;1.85;0.60;;;;;;;9.09;100.00;94691.16;4973242;28;24432;-75
2021/11/01 04:42:32;;;;;;;0.70;0.40;;;;;;;9.17;100.00;94691.41;4975744;28;20815;-76
2021/11/01 04:53:13;;;;;;;1.23;0.50;;;;;;;9.27;100.00;94686.34;4975653;28;21291;-77
2021/11/01 04:55:42;;;;;;;1.00;0.47;;;;;;;9.27;100.00;94692.38;4974960;28;20780;-77
2021/11/01 04:58:11;;;;;;;1.60;0.50;;;;;;;9.28;100.00;94698.38;4974940;28;21331;-77
2021/11/01 05:00:38;;;;;;;1.10;0.60;;;;;;;9.29;100.00;94702.59;4974638;28;24468;-77
2021/11/01 05:03:09;;;;;;;1.33;0.57;;;;;;;9.19;100.00;94720.50;4974582;28;21358;-76
2021/11/01 05:05:36;;;;;;;0.98;0.50;;;;;;;9.16;100.00;94713.84;4974572;28;20848;-77
2021/11/01 05:08:04;;;;;;;0.47;0.30;;;;;;;9.18;100.00;94718.88;4974925;28;20797;-77
2021/11/01 05:10:33;;;;;;;1.05;0.40;;;;;;;9.14;100.00;94723.44;4974740;28;24461;-77
2021/11/01 05:13:00;;;;;;;1.80;0.75;;;;;;;9.12;100.00;94732.22;4974743;28;20778;-77
2021/11/01 05:15:36;;;;;;;0.87;0.40;;;;;;;8.92;100.00;94729.34;4974224;28;24981;-77
2021/11/01 05:18:14;;;;;;;1.52;0.52;;;;;;;8.83;100.00;94740.38;4974699;28;21297;-77
2021/11/01 05:20:43;;;;;;;2.13;0.90;;;;;;;8.85;100.00;94741.06;4977600;28;21139;-78
2021/11/01 05:23:14;;;;;;;1.52;1.00;;;;;;;8.79;100.00;94748.41;4983879;28;20816;-77
2021/11/01 05:25:44;;;;;;;2.13;0.63;;;;;;;8.80;100.00;94743.16;4981762;28;20770;-77
2021/11/01 05:28:19;;;;;;;3.20;0.60;;;;;;;8.72;100.00;94741.13;4984894;28;20772;-77
2021/11/01 05:30:53;;;;;;;2.20;0.57;;;;;;;8.74;100.00;94748.75;4982981;28;20690;-77
2021/11/01 05:36:03;;;;;;;1.00;0.60;;;;;;;8.83;100.00;94749.88;4977466;28;20659;-77
2021/11/01 05:38:29;;;;;;;2.58;0.60;;;;;;;8.87;100.00;94741.78;4984203;28;24457;-77
2021/11/01 05:40:56;;;;;;;0.77;0.50;;;;;;;8.92;100.00;94749.19;4984275;28;24993;-76
2021/11/01 05:43:22;;;;;;;2.00;0.60;;;;;;;8.68;100.00;94750.03;4985495;28;24444;-76
2021/11/01 05:45:50;;;;;;;1.15;0.50;;;;;;;8.65;100.00;94739.94;4993252;28;24432;-77
2021/11/01 05:48:17;;;;;;;1.08;0.40;;;;;;;8.63;100.00;94748.69;5009381;22;20911;-75
2021/11/01 05:50:44;;;;;;;3.90;0.60;;;;;;;8.54;100.00;94750.19;4991978;28;24439;-75
2021/11/01 05:53:12;;;;;;;0.80;0.40;;;;;;;8.47;100.00;94744.63;4993357;28;20862;-75
2021/11/01 05:55:46;;;;;;;1.77;0.63;;;;;;;8.47;100.00;94743.81;4993271;28;20859;-75
2021/11/01 05:58:17;;;;;;;1.02;0.50;;;;;;;8.53;100.00;94737.38;4993630;28;20753;-75
2021/11/01 06:01:15;;;;;;;0.80;0.40;;;;;;;8.55;100.00;94732.94;4993293;28;24921;-75
2021/11/01 06:03:45;;;;;;;1.30;0.57;;;;;;;8.56;100.00;94727.66;4993127;28;21143;-75
2021/11/01 06:06:29;;;;;;;1.27;0.40;;;;;;;8.61;100.00;94741.09;4993054;28;20719;-75
2021/11/01 06:09:17;;;;;;;2.53;0.63;;;;;;;8.45;100.00;94731.03;4993400;28;20675;-75
2021/11/01 06:14:29;;;;;;;0.87;0.80;;;;;;;8.55;100.00;94728.59;4993038;28;20652;-75
2021/11/01 06:16:56;;;;;;;2.72;1.40;;;;;;;8.47;100.00;94736.06;4993139;28;20810;-75
2021/11/01 06:19:24;;;;;;;1.50;0.70;;;;;;;8.46;100.00;94737.84;4992827;28;24970;-75
2021/11/01 06:21:51;;;;;;;1.30;0.50;;;;;;;8.46;100.00;94734.44;4993102;28;24421;-75
2021/11/01 06:24:37;;;;;;;1.95;0.90;;;;;;;8.39;100.00;94728.06;4992969;28;24449;-75
2021/11/01 06:27:08;;;;;;;3.15;0.77;;;;;;;8.40;100.00;94730.53;4992676;28;24429;-75
2021/11/01 06:29:45;;;;;;;2.10;0.77;;;;;;;8.47;100.00;94730.91;4993587;28;20819;-75
2021/11/01 06:32:15;;;;;;;2.43;0.77;;;;;;;8.51;100.00;94723.78;4992854;28;21364;-75
2021/11/01 06:39:04;;;;;;;2.08;0.68;;;;;;;8.43;100.00;94729.50;4992884;28;21135;-75
2021/11/01 06:40:34;;;;;;;1.13;0.50;;;;;;;8.27;100.00;94734.88;4981240;28;24440;-75
2021/11/01 06:43:06;;;;;;;4.10;0.65;;;;;;;8.32;100.00;94735.38;4992573;28;21302;-75
2021/11/01 06:45:41;;;;;;;3.17;0.70;;;;;;;8.21;100.00;94725.81;4992623;28;20850;-75
2021/11/01 06:56:48;;;;;;;0.98;0.60;;;;;;;8.27;100.00;94727.16;4970458;28;20812;-75
2021/11/01 07:15:41;;;;;;;1.80;0.60;;;;;;;7.94;100.00;94738.88;4991771;28;20746;-75
2021/11/01 07:18:11;;;;;;;1.98;0.90;;;;;;;7.91;100.00;94743.41;4992009;28;20816;-75
2021/11/01 07:20:49;;;;;;;5.40;1.05;;;;;;;7.82;100.00;94747.41;4992080;28;20779;-75
2021/11/01 08:23:45;;;;;;;5.55;1.10;;;;;;;8.11;100.00;94793.59;4995025;28;20822;-76
2021/11/01 08:51:45;;;;;;;3.10;0.80;;;;;;;8.49;100.00;94785.81;4994373;28;24420;-76
2021/11/01 09:02:42;;;;;;;2.00;0.85;;;;;;;8.52;100.00;94741.72;4993962;28;24990;-75
2021/11/01 09:05:32;;;;;;;3.10;0.88;;;;;;;8.60;100.00;94751.50;4993895;28;20830;-75
2021/11/01 09:09:43;;;;;;;4.68;2.30;;;;;;;8.48;100.00;94753.19;4994044;28;20768;-76
2021/11/01 09:19:48;;;;;;;2.17;1.47;;;;;;;8.27;100.00;94795.94;4994109;28;20815;-76
2021/11/01 09:25:24;;;;;;;2.90;1.00;;;;;;;8.36;100.00;94788.41;4993213;28;21135;-75
2021/11/01 09:27:59;;;;;;;1.20;0.73;;;;;;;8.37;100.00;94784.91;4993858;28;20663;-75
2021/11/01 09:35:43;;;;;;;2.28;1.13;;;;;;;8.47;100.00;94778.19;4993787;28;20854;-75
2021/11/01 09:36:22;;;;;;;2.42;0.88;;;;;;;8.49;100.00;94775.47;4993121;28;24435;-75
2021/11/01 09:41:33;;;;;;;1.25;0.70;;;;;;;8.58;100.00;94774.84;4993330;28;20804;-75
2021/11/01 09:44:08;;;;;;;1.98;0.90;;;;;;;8.52;100.00;94787.34;4993317;28;21350;-75
2021/11/01 09:46:35;;;;;;;2.10;0.97;;;;;;;8.54;100.00;94791.47;4993377;28;20719;-75
2021/11/01 09:49:14;;;;;;;1.35;0.68;;;;;;;8.61;100.00;94786.72;4993157;28;24431;-75
2021/11/01 09:51:44;;;;;;;1.83;1.00;;;;;;;8.59;100.00;94804.06;4993154;28;24984;-75
2021/11/01 09:54:19;;;;;;;1.97;1.00;;;;;;;8.57;100.00;94813.69;4993215;28;20672;-75
2021/11/01 09:56:56;;;;;;;5.18;1.20;;;;;;;8.38;100.00;94819.28;4992901;28;21068;-75
2021/11/01 09:59:23;;;;;;;3.65;0.90;;;;;;;8.32;100.00;94811.94;4993381;28;20802;-75
2021/11/01 10:01:52;;;;;;;0.80;0.60;;;;;;;8.35;100.00;94804.81;4993059;28;20756;-75
2021/11/01 10:04:21;;;;;;;1.95;0.95;;;;;;;8.48;100.00;94799.66;4992884;28;20867;-75
2021/11/01 10:06:59;;;;;;;2.05;0.90;;;;;;;8.52;100.00;94793.34;4992200;28;20779;-75
2021/11/01 10:09:30;;;;;;;2.60;1.15;;;;;;;8.58;100.00;94784.34;4987269;28;20661;-75
2021/11/01 10:11:57;;;;;;;2.72;1.30;;;;;;;8.54;100.00;94796.66;4992725;28;20715;-75
2021/11/01 10:14:25;;;;;;;1.70;0.95;;;;;;;8.58;100.00;94797.25;4986527;28;20778;-75
2021/11/01 10:19:41;;;;;;;1.90;0.90;;;;;;;8.50;100.00;94791.81;4992156;28;20687;-75
2021/11/01 10:22:13;;;;;;;2.90;0.93;;;;;;;8.63;100.00;94772.75;4986256;28;21146;-75
2021/11/01 10:24:41;;;;;;;1.30;0.63;;;;;;;8.75;100.00;94777.97;4989151;28;21308;-75
2021/11/01 10:27:09;;;;;;;8.70;0.70;;;;;;;8.75;100.00;94784.00;4992624;28;20829;-75
2021/11/01 10:29:50;;;;;;;1.00;0.50;;;;;;;8.69;100.00;94789.56;4992564;28;20892;-75
2021/11/01 10:32:26;;;;;;;1.50;0.60;;;;;;;8.67;100.00;94789.66;4992985;28;20795;-75
2021/11/01 10:35:11;;;;;;;1.73;0.68;;;;;;;8.70;100.00;94778.31;4991928;28;20668;-76
2021/11/01 10:37:42;;;;;;;1.17;0.60;;;;;;;8.74;100.00;94772.00;4991826;28;20713;-76
2021/11/01 10:40:10;;;;;;;0.75;0.50;;;;;;;8.90;100.00;94761.41;4992408;28;21106;-76
2021/11/01 10:42:44;;;;;;;0.80;0.68;;;;;;;8.82;100.00;94758.53;4992428;28;20818;-75
2021/11/01 10:45:21;;;;;;;2.55;0.60;;;;;;;8.81;100.00;94756.91;4992031;28;24440;-76
2021/11/01 10:57:00;;;;;;;1.50;0.68;;;;;;;8.77;100.00;94751.13;4991881;28;20642;-76
2021/11/01 11:13:13;;;;;;;1.98;0.90;;;;;;;8.85;100.00;94719.59;4991716;28;20802;-76
2021/11/01 11:15:40;;;;;;;1.92;0.85;;;;;;;8.80;100.00;94717.34;4988346;28;20780;-76
2021/11/01 11:18:14;;;;;;;1.10;0.70;;;;;;;8.85;100.00;94712.66;4991516;28;21351;-76
2021/11/01 11:29:22;;;;;;;1.20;0.80;;;;;;;9.00;100.00;94739.13;4972399;28;20820;-76
2021/11/01 11:37:58;;;;;;;1.55;0.60;;;;;;;8.90;100.00;94709.78;4972086;28;20720;-75
2021/11/01 11:40:44;;;;;;;1.52;0.63;;;;;;;8.84;100.00;94708.44;4971899;28;21256;-76
2021/11/01 11:48:48;;;;;;;2.00;1.00;;;;;;;9.02;100.00;94702.88;5041898;23;20817;-76
2021/11/01 11:51:15;;;;;;;2.80;0.80;;;;;;;9.02;100.00;94719.19;5050323;28;24465;-76
2021/11/01 11:53:57;;;;;;;7.53;0.80;;;;;;;9.05;100.00;94718.13;5050578;28;24438;-77
2021/11/01 11:56:31;;;;;;;1.40;0.80;;;;;;;9.02;100.00;94714.03;5050437;28;20761;-77
2021/11/01 11:59:01;;;;;;;1.48;0.80;;;;;;;8.92;100.00;94710.47;5050780;28;21059;-77
2021/11/01 12:01:29;;;;;;;3.22;1.80;;;;;;;8.95;100.00;94716.22;5050435;28;20812;-77
2021/11/01 12:03:57;;;;;;;1.55;0.98;;;;;;;8.91;100.00;94709.66;5050535;28;20808;-75
2021/11/01 12:06:45;;;;;;;1.88;0.95;;;;;;;8.86;100.00;94704.00;5050619;28;20771;-78
2021/11/01 12:09:18;;;;;;;1.65;0.80;;;;;;;9.04;100.00;94711.31;5032547;28;20808;-79
2021/11/01 12:17:28;;;;;;;1.58;0.90;;;;;;;9.12;100.00;94702.09;5053897;28;20882;-78
2021/11/01 12:20:02;;;;;;;2.13;0.90;;;;;;;9.12;100.00;94693.50;5052447;28;24516;-79
2021/11/01 12:22:35;;;;;;;2.70;1.08;;;;;;;9.13;100.00;94690.00;5048933;28;21212;-79
2021/11/01 12:25:07;;;;;;;1.63;1.20;;;;;;;9.06;100.00;94696.53;5052506;28;20729;-78
2021/11/01 12:27:38;;;;;;;2.72;1.55;;;;;;;9.05;100.00;94692.28;5051353;28;21153;-78
2021/11/01 12:30:11;;;;;;;1.40;1.10;;;;;;;9.11;100.00;94689.28;5051012;28;24591;-78
2021/11/01 12:32:40;;;;;;;1.52;1.13;;;;;;;9.19;100.00;94690.34;5051298;28;24553;-78
2021/11/01 12:35:13;;;;;;;2.40;1.58;;;;;;;9.18;100.00;94687.88;5050764;28;24459;-78
2021/11/01 12:37:47;;;;;;;4.32;1.30;;;;;;;9.24;100.00;94678.88;5053485;28;20926;-78
2021/11/01 12:40:23;;;;;;;2.17;1.08;;;;;;;9.15;100.00;94670.03;5050600;28;20794;-79
2021/11/01 12:43:03;;;;;;;1.80;0.80;;;;;;;9.09;100.00;94686.00;5048827;28;20777;-78
2021/11/01 12:59:34;;;;;;;1.00;0.80;;;;;;;9.28;100.00;94655.25;5049841;28;20655;-77
2021/11/01 13:02:02;;;;;;;1.70;0.95;;;;;;;9.44;100.00;94647.97;5053491;28;20703;-77
2021/11/01 13:04:36;;;;;;;2.85;0.80;;;;;;;9.43;100.00;94645.53;5050411;28;24440;-77
2021/11/01 13:07:12;;;;;;;1.70;0.80;;;;;;;9.53;100.00;94648.22;5053007;28;24547;-77
2021/11/01 13:09:42;;;;;;;6.35;1.05;;;;;;;9.53;100.00;94643.03;5053054;28;20858;-77
2021/11/01 13:12:28;;;;;;;2.63;0.90;;;;;;;9.48;100.00;94658.91;5052646;28;24493;-77
2021/11/01 13:18:11;;;;;;;1.05;0.70;;;;;;;9.49;100.00;94644.22;5050240;28;20785;-77
2021/11/01 13:20:40;;;;;;;2.03;0.90;;;;;;;9.69;100.00;94639.16;5051260;28;20808;-77
2021/11/01 13:23:09;;;;;;;2.13;1.08;;;;;;;9.58;100.00;94636.59;5052878;28;21217;-77
2021/11/01 13:25:44;;;;;;;2.17;0.98;;;;;;;9.62;100.00;94644.94;5052671;28;20821;-77
2021/11/01 13:37:25;;;;;;;1.63;1.10;;;;;;;9.80;100.00;94638.34;5104474;27;24413;-77
2021/11/01 13:40:03;;;;;;;2.95;1.13;;;;;;;9.93;100.00;94633.03;5077125;28;20766;-77
2021/11/01 13:42:30;;;;;;;1.38;0.60;;;;;;;9.91;100.00;94642.69;5076207;28;20789;-77
2021/11/01 13:45:09;;;;;;;1.63;1.00;;;;;;;9.74;100.00;94643.16;5077749;28;20759;-77
2021/11/01 13:47:46;;;;;;;1.40;0.80;;;;;;;9.80;100.00;94633.16;5067264;28;24868;-77
2021/11/01 13:50:14;;;;;;;1.88;1.00;;;;;;;9.98;100.00;94643.03;5067871;28;20853;-77
2021/11/01 13:52:45;;;;;;;2.70;1.00;;;;;;;9.98;100.00;94643.84;5072814;28;24438;-77
2021/11/01 13:55:20;;;;;;;2.58;1.20;;;;;;;10.01;100.00;94642.75;5077014;28;20762;-77
2021/11/01 13:57:51;;;;;;;1.73;0.80;;;;;;;10.03;100.00;94633.13;5076193;28;20775;-77
2021/11/01 14:00:32;;;;;;;2.45;1.00;;;;;;;9.89;100.00;94636.78;5077340;28;20725;-77
2021/11/01 14:03:11;;;;;;;2.35;1.42;;;;;;;9.88;100.00;94641.16;5067133;28;24865;-77
2021/11/01 14:11:31;;;;;;;2.30;0.90;;;;;;;9.93;100.00;94626.09;5075402;28;20629;-77
2021/11/01 14:14:09;;;;;;;3.53;1.65;;;;;;;9.83;100.00;94629.53;5076815;28;24994;-77
2021/11/01 14:16:39;;;;;;;3.43;1.33;;;;;;;9.84;100.00;94626.81;5076566;28;20807;-77
2021/11/01 14:27:37;;;;;;;20.17;12.68;;;;;;;9.80;100.00;94620.25;5077128;28;20638;-77
2021/11/01 14:35:59;;;;;;;1.45;1.00;;;;;;;9.38;100.00;94624.34;5080668;28;20815;-77
2021/11/01 15:12:04;;;;;;;17.92;7.68;;;;;;;9.60;100.00;94592.50;5072872;28;24506;-77
2021/11/01 15:20:20;;;;;;;3.53;1.98;;;;;;;9.65;100.00;94572.31;5059550;28;20647;-77
2021/11/01 15:28:30;;;;;;;13.30;7.07;;;;;;;9.60;100.00;94587.34;5072399;28;24508;-77
2021/11/01 15:33:56;;;;;;;3.35;1.80;;;;;;;9.31;100.00;94585.28;5072243;28;24484;-76
2021/11/01 16:15:36;;;;;;;3.22;2.50;;;;;;;8.79;100.00;94625.34;5112365;28;24439;-77
2021/11/01 16:18:06;;;;;;;4.38;2.85;;;;;;;8.84;100.00;94630.16;5112277;28;20753;-78
2021/11/01 16:20:34;;;;;;;4.05;2.83;;;;;;;8.88;100.00;94639.34;5112297;28;20794;-77
2021/11/01 16:23:19;;;;;;;3.45;2.05;;;;;;;8.90;100.00;94646.03;5112166;28;20873;-77
2021/11/01 16:25:54;;;;;;;2.22;1.75;;;;;;;8.94;100.00;94642.28;5111865;28;20773;-77
2021/11/01 16:28:20;;;;;;;1.80;1.40;;;;;;;8.92;100.00;94648.50;5112353;28;20718;-77
2021/11/01 16:30:55;;;;;;;1.80;1.35;;;;;;;8.86;100.00;94648.94;5112085;28;24418;-77
2021/11/01 16:33:28;;;;;;;2.20;1.60;;;;;;;8.84;100.00;94648.25;5112030;28;21274;-77
2021/11/01 16:35:58;;;;;;;4.15;2.38;;;;;;;8.80;100.00;94649.41;5111399;28;20819;-76
2021/11/01 16:38:26;;;;;;;4.07;2.80;;;;;;;8.82;100.00;94645.75;5111806;28;20711;-77
2021/11/01 16:40:54;;;;;;;3.90;2.40;;;;;;;8.72;100.00;94637.06;5111765;28;24494;-76
2021/11/01 16:43:24;;;;;;;3.28;1.80;;;;;;;8.55;100.00;94630.53;5111967;28;24787;-77
2021/11/01 16:45:53;;;;;;;2.42;1.25;;;;;;;8.51;100.00;94629.13;5111566;28;24973;-77
2021/11/01 16:48:20;;;;;;;3.00;1.17;;;;;;;8.56;100.00;94629.59;5111679;28;24430;-77
2021/11/01 16:50:47;;;;;;;2.83;1.02;;;;;;;8.61;100.00;94629.28;5111862;28;20794;-77
2021/11/01 16:53:15;;;;;;;4.63;1.33;;;;;;;8.55;100.00;94634.88;5111490;28;20746;-77
2021/11/01 16:55:43;;;;;;;4.15;1.58;;;;;;;8.50;100.00;94634.41;5111244;28;21350;-77
2021/11/01 16:58:14;;;;;;;5.65;2.92;;;;;;;8.39;100.00;94633.41;5111614;28;20844;-77
2021/11/01 17:00:45;;;;;;;4.80;2.10;;;;;;;8.39;100.00;94632.59;5111686;28;20723;-77
2021/11/01 17:03:17;;;;;;;5.25;3.00;;;;;;;8.45;100.00;94635.56;5111584;28;20773;-77
2021/11/01 17:05:58;;;;;;;6.63;4.53;;;;;;;8.47;100.00;94635.44;5111131;27;20706;-77
2021/11/01 17:08:52;;;;;;;3.85;2.42;;;;;;;8.37;100.00;94624.09;5111456;28;20774;-77
2021/11/01 17:22:31;;;;;;;6.20;3.03;;;;;;;8.37;100.00;94631.84;5088459;28;21233;-77
2021/11/01 17:25:04;;;;;;;5.43;2.72;;;;;;;8.38;100.00;94624.03;5090834;28;21067;-77
2021/11/01 17:36:23;;;;;;;2.92;1.38;;;;;;;8.10;100.00;94616.59;5047514;28;24462;-77
2021/11/01 18:40:16;;;;;;;2.17;1.55;;;;;;;7.66;100.00;94612.81;5069400;28;24530;-77
2021/11/01 18:43:02;;;;;;;2.53;1.70;;;;;;;7.63;100.00;94610.44;5073576;28;24431;-77
2021/11/01 18:51:07;;;;;;;4.00;2.00;;;;;;;7.64;100.00;94612.09;5073419;28;24418;-77
2021/11/01 18:53:37;;;;;;;2.93;2.30;;;;;;;7.48;100.00;94609.75;5073032;28;24487;-77
2021/11/01 18:56:06;;;;;;;3.42;2.38;;;;;;;7.35;100.00;94609.78;5072576;28;24434;-76